createdAt,value
2022-11-12T00:00:59.413Z,11.05
2022-11-12T00:03:20.496Z,11.15
2022-11-12T00:05:41.116Z,11.17
2022-11-12T00:08:01.711Z,11.20
2022-11-12T00:10:23.141Z,11.20
2022-11-12T00:12:44.303Z,11.29
2022-11-12T00:15:05.501Z,11.27
2022-11-12T00:17:25.923Z,11.30
2022-11-12T00:19:46.732Z,11.37
2022-11-12T00:22:07.059Z,11.23
2022-11-12T00:24:28.112Z,11.28
2022-11-12T00:26:48.824Z,11.36
2022-11-12T00:29:09.915Z,11.34
2022-11-12T00:31:32.092Z,11.33
2022-11-12T00:33:52.849Z,11.33
2022-11-12T00:36:13.297Z,11.35
2022-11-12T00:38:36.395Z,11.41
2022-11-12T00:41:00.460Z,11.40
2022-11-12T00:43:21.209Z,11.41
2022-11-12T00:45:43.610Z,11.46
2022-11-12T00:48:04.687Z,11.49
2022-11-12T00:50:25.718Z,11.47
2022-11-12T00:52:46.928Z,11.51
2022-11-12T00:55:07.982Z,11.53
2022-11-12T00:57:28.679Z,11.54
2022-11-12T00:59:49.532Z,11.53
2022-11-12T01:02:10.819Z,11.58
2022-11-12T01:04:31.769Z,11.60
2022-11-12T01:06:52.820Z,11.53
2022-11-12T01:09:13.397Z,11.54
2022-11-12T01:11:34.129Z,11.56
2022-11-12T01:14:07.580Z,11.62
2022-11-12T01:17:30.468Z,11.57
2022-11-12T01:19:51.263Z,11.63
2022-11-12T01:22:12.165Z,11.66
2022-11-12T01:24:32.756Z,11.64
2022-11-12T01:26:53.691Z,11.67
2022-11-12T01:29:14.381Z,11.65
2022-11-12T01:31:37.135Z,11.69
2022-11-12T01:34:01.134Z,11.75
2022-11-12T01:36:22.666Z,11.73
2022-11-12T01:39:09.110Z,11.61
2022-11-12T01:41:33.715Z,11.69
2022-11-12T01:44:11.038Z,11.68
2022-11-12T01:46:31.610Z,11.77
2022-11-12T01:49:03.166Z,11.85
2022-11-12T01:51:30.389Z,11.75
2022-11-12T01:53:57.241Z,11.71
2022-11-12T01:56:23.073Z,11.72
2022-11-12T01:59:33.999Z,11.65
2022-11-12T02:01:54.454Z,11.66
2022-11-12T02:04:15.638Z,11.66
2022-11-12T02:06:37.959Z,11.71
2022-11-12T02:08:58.694Z,11.71
2022-11-12T02:11:21.716Z,11.66
2022-11-12T02:13:58.239Z,11.72
2022-11-12T02:16:18.799Z,11.71
2022-11-12T02:18:39.622Z,11.70
2022-11-12T02:21:06.112Z,11.69
2022-11-12T02:23:26.714Z,11.73
2022-11-12T02:25:47.376Z,11.77
2022-11-12T02:28:08.815Z,11.80
2022-11-12T02:30:34.069Z,11.71
2022-11-12T02:32:54.886Z,11.76
2022-11-12T02:35:15.709Z,11.75
2022-11-12T02:37:36.354Z,11.72
2022-11-12T02:39:56.992Z,11.73
2022-11-12T02:42:17.138Z,11.74
2022-11-12T02:44:37.724Z,11.71
2022-11-12T02:51:04.359Z,11.80
2022-11-12T02:53:25.029Z,11.83
2022-11-12T02:55:45.840Z,11.87
2022-11-12T02:58:06.383Z,11.89
2022-11-12T03:00:26.864Z,11.89
2022-11-12T03:02:59.377Z,11.92
2022-11-12T03:05:20.109Z,11.92
2022-11-12T03:07:40.803Z,11.93
2022-11-12T03:10:01.870Z,11.95
2022-11-12T03:12:25.068Z,11.98
2022-11-12T03:14:48.367Z,11.94
2022-11-12T03:17:11.705Z,11.95
2022-11-12T03:19:32.151Z,12.00
2022-11-12T03:21:52.583Z,11.97
2022-11-12T03:24:13.306Z,11.99
2022-11-12T03:26:35.946Z,11.99
2022-11-12T03:28:56.751Z,11.97
2022-11-12T03:31:17.077Z,11.98
2022-11-12T03:33:40.741Z,12.04
2022-11-12T03:36:01.903Z,12.05
2022-11-12T03:38:23.870Z,12.04
2022-11-12T03:40:44.613Z,11.98
2022-11-12T03:43:05.096Z,11.99
2022-11-12T03:45:27.105Z,11.98
2022-11-12T03:47:50.299Z,12.00
2022-11-12T03:50:12.976Z,11.95
2022-11-12T03:52:34.078Z,11.94
2022-11-12T03:54:54.875Z,11.93
2022-11-12T03:57:15.387Z,11.96
2022-11-12T03:59:36.049Z,11.97
2022-11-12T04:01:56.887Z,11.96
2022-11-12T04:04:17.535Z,11.94
2022-11-12T04:06:56.429Z,11.94
2022-11-12T04:09:17.165Z,11.91
2022-11-12T04:11:37.640Z,11.96
2022-11-12T04:13:59.100Z,11.92
2022-11-12T04:16:40.606Z,11.98
2022-11-12T04:19:21.869Z,12.02
2022-11-12T04:21:51.358Z,11.92
2022-11-12T04:24:32.165Z,11.95
2022-11-12T04:26:53.082Z,11.95
2022-11-12T04:29:45.689Z,12.01
2022-11-12T04:32:06.120Z,12.05
2022-11-12T04:34:29.479Z,11.99
2022-11-12T04:36:50.206Z,11.96
2022-11-12T04:39:11.045Z,12.03
2022-11-12T04:41:50.429Z,12.02
2022-11-12T04:44:29.607Z,12.02
2022-11-12T04:46:50.341Z,12.05
2022-11-12T04:49:11.069Z,12.12
2022-11-12T04:51:50.067Z,12.07
2022-11-12T04:54:10.860Z,12.05
2022-11-12T04:56:33.036Z,12.03
2022-11-12T04:58:53.819Z,12.09
2022-11-12T05:01:14.330Z,12.11
2022-11-12T05:03:35.842Z,12.09
2022-11-12T05:06:04.611Z,12.06
2022-11-12T05:08:25.273Z,12.08
2022-11-12T05:10:46.214Z,12.08
2022-11-12T05:13:06.681Z,12.11
2022-11-12T05:15:27.043Z,12.14
2022-11-12T05:17:47.457Z,12.14
2022-11-12T05:20:08.749Z,12.19
2022-11-12T05:22:43.428Z,12.20
2022-11-12T05:25:06.230Z,12.27
2022-11-12T05:27:26.914Z,12.25
2022-11-12T05:29:48.115Z,12.31
2022-11-12T05:32:11.442Z,12.30
2022-11-12T05:34:32.076Z,12.26
2022-11-12T05:36:53.201Z,12.23
2022-11-12T05:39:13.882Z,12.27
2022-11-12T05:41:51.406Z,12.25
2022-11-12T05:44:15.248Z,12.27
2022-11-12T05:46:36.127Z,12.30
2022-11-12T05:48:57.562Z,12.35
2022-11-12T05:51:18.199Z,12.36
2022-11-12T05:53:38.857Z,12.36
2022-11-12T05:56:03.356Z,12.37
2022-11-12T05:58:24.272Z,12.43
2022-11-12T06:00:44.807Z,12.49
2022-11-12T06:03:06.204Z,12.47
2022-11-12T06:05:27.128Z,12.50
2022-11-12T06:07:47.888Z,12.50
2022-11-12T06:10:09.031Z,12.58
2022-11-12T06:12:29.707Z,12.71
2022-11-12T06:14:50.100Z,12.73
2022-11-12T06:17:10.642Z,12.84
2022-11-12T06:19:31.609Z,12.94
2022-11-12T06:21:52.426Z,12.95
2022-11-12T06:24:13.673Z,13.06
2022-11-12T06:26:33.995Z,13.15
2022-11-12T06:28:55.099Z,13.19
2022-11-12T06:31:16.714Z,13.16
2022-11-12T06:33:37.042Z,13.20
2022-11-12T06:36:03.432Z,13.31
2022-11-12T06:38:24.387Z,13.36
2022-11-12T06:40:45.174Z,13.45
2022-11-12T06:43:05.797Z,13.47
2022-11-12T06:45:26.566Z,13.46
2022-11-12T06:47:50.337Z,13.45
2022-11-12T06:50:10.739Z,13.58
2022-11-12T06:52:31.155Z,13.69
2022-11-12T06:54:53.309Z,13.73
2022-11-12T06:57:13.857Z,13.70
2022-11-12T06:59:35.050Z,13.81
2022-11-12T07:01:55.488Z,13.92
2022-11-12T07:04:16.031Z,14.08
2022-11-12T07:06:36.981Z,14.24
2022-11-12T07:08:57.543Z,14.37
2022-11-12T07:11:19.604Z,14.52
2022-11-12T07:13:40.090Z,14.62
2022-11-12T07:16:02.981Z,14.74
2022-11-12T07:18:24.205Z,14.74
2022-11-12T07:20:45.297Z,14.70
2022-11-12T07:23:09.217Z,14.61
2022-11-12T07:25:29.479Z,14.30
2022-11-12T07:27:50.336Z,14.30
2022-11-12T07:30:11.468Z,14.37
2022-11-12T07:32:32.257Z,14.46
2022-11-12T07:34:52.929Z,14.57
2022-11-12T07:37:13.772Z,14.59
2022-11-12T07:39:34.507Z,14.69
2022-11-12T07:41:55.245Z,14.73
2022-11-12T07:44:16.082Z,14.87
2022-11-12T07:46:37.356Z,14.92
2022-11-12T07:48:58.247Z,15.00
2022-11-12T07:51:20.077Z,15.10
2022-11-12T07:53:41.422Z,15.22
2022-11-12T07:56:05.928Z,15.35
2022-11-12T07:58:30.523Z,15.42
2022-11-12T08:00:52.474Z,15.54
2022-11-12T08:03:13.257Z,15.57
2022-11-12T08:05:34.830Z,15.66
2022-11-12T08:07:58.593Z,15.76
2022-11-12T08:10:19.253Z,15.83
2022-11-12T08:12:40.039Z,15.91
2022-11-12T08:15:00.951Z,15.98
2022-11-12T08:17:21.662Z,16.07
2022-11-12T08:19:42.451Z,16.18
2022-11-12T08:22:03.061Z,16.24
2022-11-12T08:24:23.969Z,16.26
2022-11-12T08:26:44.650Z,16.27
2022-11-12T08:29:08.677Z,16.30
2022-11-12T08:31:29.517Z,16.29
2022-11-12T08:33:50.921Z,16.36
2022-11-12T08:36:14.271Z,16.36
2022-11-12T08:38:35.411Z,16.39
2022-11-12T08:40:58.417Z,16.43
2022-11-12T08:43:19.321Z,16.43
2022-11-12T08:45:41.536Z,16.41
2022-11-12T08:48:03.412Z,16.50
2022-11-12T08:50:24.368Z,16.56
2022-11-12T08:52:45.047Z,16.61
2022-11-12T08:55:06.903Z,16.69
2022-11-12T08:57:27.748Z,16.69
2022-11-12T08:59:48.432Z,16.68
2022-11-12T09:02:14.284Z,16.71
2022-11-12T09:04:34.835Z,16.74
2022-11-12T09:06:55.213Z,16.82
2022-11-12T09:09:15.914Z,16.85
2022-11-12T09:11:36.591Z,16.93
2022-11-12T09:13:57.610Z,16.94
2022-11-12T09:16:18.229Z,16.95
2022-11-12T09:18:38.523Z,16.99
2022-11-12T09:21:01.110Z,16.97
2022-11-12T09:23:21.668Z,17.03
2022-11-12T09:25:42.787Z,17.00
2022-11-12T09:28:17.208Z,17.01
2022-11-12T09:30:41.750Z,17.07
2022-11-12T09:33:02.720Z,17.14
2022-11-12T09:35:23.514Z,17.19
2022-11-12T09:37:44.670Z,17.29
2022-11-12T09:40:07.465Z,17.32
2022-11-12T09:42:28.521Z,17.38
2022-11-12T09:45:03.188Z,17.39
2022-11-12T09:47:38.887Z,17.39
2022-11-12T09:50:12.487Z,17.42
2022-11-12T09:53:05.217Z,17.44
2022-11-12T09:55:37.985Z,17.52
2022-11-12T09:57:58.617Z,17.56
2022-11-12T10:00:21.815Z,17.61
2022-11-12T10:02:57.463Z,17.64
2022-11-12T10:05:36.448Z,17.74
2022-11-12T10:08:03.404Z,17.75
2022-11-12T10:10:46.364Z,17.79
2022-11-12T10:13:12.825Z,17.86
2022-11-12T10:15:51.671Z,17.92
2022-11-12T10:18:33.784Z,17.90
2022-11-12T10:21:20.071Z,17.93
2022-11-12T10:23:49.832Z,17.98
2022-11-12T10:26:19.067Z,18.06
2022-11-12T10:28:47.888Z,18.08
2022-11-12T10:31:13.823Z,18.09
2022-11-12T10:33:34.723Z,18.13
2022-11-12T10:35:57.340Z,18.16
2022-11-12T10:38:26.204Z,18.19
2022-11-12T10:40:47.202Z,18.24
2022-11-12T10:43:17.153Z,18.26
2022-11-12T10:45:41.802Z,18.36
2022-11-12T10:48:02.596Z,18.36
2022-11-12T10:50:36.817Z,18.46
2022-11-12T10:53:03.104Z,18.48
2022-11-12T10:55:31.409Z,18.54
2022-11-12T10:58:15.166Z,18.50
2022-11-12T11:00:53.222Z,18.56
2022-11-12T11:03:25.460Z,18.59
2022-11-12T11:06:15.585Z,18.58
2022-11-12T11:08:47.880Z,18.67
2022-11-12T11:11:20.455Z,18.67
2022-11-12T11:13:41.257Z,18.72
2022-11-12T11:16:07.937Z,18.73
2022-11-12T11:18:35.401Z,18.74
2022-11-12T11:21:06.771Z,18.81
2022-11-12T11:23:36.396Z,18.85
2022-11-12T11:26:07.605Z,18.83
2022-11-12T11:28:55.698Z,18.86
2022-11-12T11:31:26.879Z,18.96
2022-11-12T11:34:09.839Z,18.94
2022-11-12T11:40:21.663Z,18.88
2022-11-12T11:43:03.418Z,18.92
2022-11-12T11:45:30.329Z,18.98
2022-11-12T11:48:02.606Z,19.01
2022-11-12T11:50:28.705Z,19.02
2022-11-12T11:53:17.390Z,18.97
2022-11-12T11:55:46.335Z,19.03
2022-11-12T11:58:33.243Z,18.99
2022-11-12T12:01:02.925Z,19.03
2022-11-12T12:03:36.275Z,18.98
2022-11-12T12:06:12.993Z,19.01
2022-11-12T12:09:03.222Z,18.97
2022-11-12T12:11:47.453Z,18.98
2022-11-12T12:14:17.066Z,18.99
2022-11-12T12:16:58.718Z,19.00
2022-11-12T12:19:53.654Z,18.98
2022-11-12T12:22:19.613Z,19.04
2022-11-12T12:24:49.513Z,19.04
2022-11-12T12:27:16.567Z,19.01
2022-11-12T12:29:59.638Z,19.02
2022-11-12T12:32:41.919Z,19.04
2022-11-12T12:35:15.139Z,19.06
2022-11-12T12:37:43.870Z,19.05
2022-11-12T12:40:18.828Z,19.03
2022-11-12T12:42:48.911Z,18.99
2022-11-12T12:45:36.325Z,18.90
2022-11-12T12:47:58.697Z,18.95
2022-11-12T12:50:21.659Z,18.97
2022-11-12T12:53:05.671Z,18.94
2022-11-12T12:55:40.489Z,18.92
2022-11-12T12:58:01.443Z,18.94
2022-11-12T13:00:34.967Z,18.92
2022-11-12T13:02:56.552Z,18.95
2022-11-12T13:05:46.355Z,18.88
2022-11-12T13:08:14.534Z,18.95
2022-11-12T13:10:49.474Z,18.91
2022-11-12T13:13:19.515Z,18.89
2022-11-12T13:15:46.741Z,18.90
2022-11-12T13:18:14.239Z,18.91
2022-11-12T13:20:41.005Z,18.89
2022-11-12T13:23:02.414Z,18.89
2022-11-12T13:25:24.217Z,18.86
2022-11-12T13:27:44.774Z,18.81
2022-11-12T13:30:25.179Z,18.72
2022-11-12T13:32:48.812Z,18.76
2022-11-12T13:35:22.921Z,18.71
2022-11-12T13:38:09.493Z,18.62
2022-11-12T13:44:17.856Z,18.58
2022-11-12T13:46:38.739Z,18.53
2022-11-12T13:49:10.479Z,18.49
2022-11-12T13:51:52.129Z,18.43
2022-11-12T13:55:14.952Z,18.43
2022-11-12T13:57:35.760Z,18.43
2022-11-12T14:00:18.971Z,18.39
2022-11-12T14:02:43.462Z,18.41
2022-11-12T14:05:05.077Z,18.39
2022-11-12T14:07:37.724Z,18.35
2022-11-12T14:10:17.662Z,18.32
2022-11-12T14:12:56.849Z,18.33
2022-11-12T14:15:32.694Z,18.30
2022-11-12T14:18:09.304Z,18.23
2022-11-12T14:20:41.281Z,18.14
2022-11-12T14:23:20.118Z,18.10
2022-11-12T14:25:55.621Z,18.06
2022-11-12T14:28:29.196Z,18.00
2022-11-12T14:30:50.169Z,17.98
2022-11-12T14:33:11.426Z,17.93
2022-11-12T14:35:37.841Z,17.88
2022-11-12T14:38:10.041Z,17.79
2022-11-12T14:40:33.946Z,17.73
2022-11-12T14:42:55.250Z,17.68
2022-11-12T14:45:17.515Z,17.61
2022-11-12T14:47:38.823Z,17.63
2022-11-12T14:49:59.684Z,17.57
2022-11-12T14:52:29.318Z,17.51
2022-11-12T14:54:55.073Z,17.46
2022-11-12T14:57:25.253Z,17.41
2022-11-12T14:59:46.276Z,17.40
2022-11-12T15:05:01.037Z,17.32
2022-11-12T15:07:24.083Z,17.31
2022-11-12T15:09:44.607Z,17.25
2022-11-12T15:12:12.734Z,17.16
2022-11-12T15:14:34.521Z,17.13
2022-11-12T15:16:55.155Z,17.07
2022-11-12T15:19:15.815Z,16.98
2022-11-12T15:21:36.809Z,16.94
2022-11-12T15:24:29.988Z,16.81
2022-11-12T15:26:53.314Z,16.83
2022-11-12T15:29:28.070Z,16.76
2022-11-12T15:31:50.454Z,16.69
2022-11-12T15:34:28.093Z,16.50
2022-11-12T15:36:49.109Z,16.51
2022-11-12T15:39:41.365Z,16.40
2022-11-12T15:45:57.388Z,16.24
2022-11-12T15:48:19.138Z,16.18
2022-11-12T15:50:39.650Z,16.13
2022-11-12T15:53:00.179Z,16.09
2022-11-12T15:55:21.374Z,16.05
2022-11-12T15:57:52.210Z,15.96
2022-11-12T16:00:19.354Z,15.89
2022-11-12T16:02:39.570Z,15.87
2022-11-12T16:04:59.852Z,15.82
2022-11-12T16:07:20.536Z,15.78
2022-11-12T16:09:41.029Z,15.74
2022-11-12T16:12:02.305Z,15.71
2022-11-12T16:14:25.026Z,15.66
2022-11-12T16:16:45.767Z,15.62
2022-11-12T16:19:14.384Z,15.56
2022-11-12T16:21:34.747Z,15.57
2022-11-12T16:23:55.375Z,15.54
2022-11-12T16:26:30.733Z,15.49
2022-11-12T16:28:51.403Z,15.40
2022-11-12T16:31:11.748Z,15.36
2022-11-12T16:33:35.584Z,15.27
2022-11-12T16:35:57.887Z,15.20
2022-11-12T16:38:18.315Z,15.23
2022-11-12T16:40:38.786Z,15.07
2022-11-12T16:42:59.472Z,15.11
2022-11-12T16:45:22.475Z,15.09
2022-11-12T16:47:45.863Z,15.12
2022-11-12T16:50:06.800Z,15.04
2022-11-12T16:52:27.928Z,14.98
2022-11-12T16:54:48.411Z,14.97
2022-11-12T16:57:11.378Z,14.94
2022-11-12T16:59:31.959Z,14.91
2022-11-12T17:01:52.833Z,14.89
2022-11-12T17:04:13.188Z,14.82
2022-11-12T17:06:41.364Z,14.74
2022-11-12T17:09:01.784Z,14.71
2022-11-12T17:11:22.779Z,14.68
2022-11-12T17:13:43.966Z,14.66
2022-11-12T17:16:06.767Z,14.63
2022-11-12T17:18:27.492Z,14.56
2022-11-12T17:24:42.798Z,14.44
2022-11-12T17:27:03.443Z,14.40
2022-11-12T17:29:23.973Z,14.36
2022-11-12T17:31:49.271Z,14.29
2022-11-12T17:34:10.183Z,14.27
2022-11-12T17:36:30.497Z,14.24
2022-11-12T17:38:58.838Z,14.13
2022-11-12T17:41:19.381Z,14.14
2022-11-12T17:43:40.890Z,14.11
2022-11-12T17:46:01.507Z,14.08
2022-11-12T17:48:23.418Z,14.03
2022-11-12T17:50:44.378Z,13.97
2022-11-12T17:53:05.427Z,13.90
2022-11-12T17:55:26.037Z,13.82
2022-11-12T17:57:49.202Z,13.66
2022-11-12T18:00:10.635Z,13.61
2022-11-12T18:02:31.321Z,13.59
2022-11-12T18:04:51.410Z,13.37
2022-11-12T18:07:12.446Z,13.29
2022-11-12T18:09:33.072Z,13.33
2022-11-12T18:11:54.982Z,13.34
2022-11-12T18:14:16.215Z,13.32
2022-11-12T18:16:37.065Z,13.36
2022-11-12T18:18:58.242Z,13.42
2022-11-12T18:21:40.484Z,13.37
2022-11-12T18:24:01.135Z,13.42
2022-11-12T18:26:22.305Z,13.43
2022-11-12T18:28:43.163Z,13.44
2022-11-12T18:31:08.701Z,13.46
2022-11-12T18:33:30.199Z,13.48
2022-11-12T18:36:03.978Z,13.44
2022-11-12T18:38:24.904Z,13.49
2022-11-12T18:40:45.611Z,13.47
2022-11-12T18:43:06.212Z,13.45
2022-11-12T18:45:28.683Z,13.42
2022-11-12T18:47:52.359Z,13.39
2022-11-12T18:50:13.143Z,13.29
2022-11-12T18:52:33.699Z,13.24
2022-11-12T18:54:54.443Z,13.20
2022-11-12T18:57:15.177Z,13.18
2022-11-12T18:59:35.841Z,13.16
2022-11-12T19:01:59.765Z,13.01
2022-11-12T19:04:20.548Z,13.04
2022-11-12T19:06:41.504Z,13.04
2022-11-12T19:09:03.470Z,13.03
2022-11-12T19:11:24.118Z,13.02
2022-11-12T19:13:44.921Z,12.95
2022-11-12T19:16:07.691Z,12.88
2022-11-12T19:18:28.584Z,12.85
2022-11-12T19:20:49.504Z,12.77
2022-11-12T19:23:10.506Z,12.64
2022-11-12T19:25:30.825Z,12.64
2022-11-12T19:27:51.346Z,12.76
2022-11-12T19:30:12.720Z,12.78
2022-11-12T19:32:33.512Z,12.84
2022-11-12T19:34:53.917Z,12.91
2022-11-12T19:39:54.863Z,12.91
2022-11-12T19:42:15.534Z,12.91
2022-11-12T19:44:36.260Z,12.89
2022-11-12T19:46:57.001Z,12.92
2022-11-12T19:49:17.524Z,12.89
2022-11-12T19:51:37.915Z,12.88
2022-11-12T19:53:58.377Z,12.79
2022-11-12T19:56:21.249Z,12.78
2022-11-12T19:58:45.284Z,12.79
2022-11-12T20:01:08.018Z,12.76
2022-11-12T20:03:30.050Z,12.78
2022-11-12T20:05:52.476Z,12.77
2022-11-12T20:08:13.066Z,12.76
2022-11-12T20:10:33.672Z,12.61
2022-11-12T20:12:55.118Z,12.64
2022-11-12T20:15:17.803Z,12.64
2022-11-12T20:17:39.269Z,12.64
2022-11-12T20:20:00.743Z,12.62
2022-11-12T20:22:21.151Z,12.60
2022-11-12T20:24:41.928Z,12.52
2022-11-12T20:27:02.925Z,12.48
2022-11-12T20:29:23.496Z,12.46
2022-11-12T20:31:43.966Z,12.44
2022-11-12T20:34:04.626Z,12.48
2022-11-12T20:36:25.293Z,12.46
2022-11-12T20:38:47.531Z,12.42
2022-11-12T20:41:14.298Z,12.29
2022-11-12T20:43:35.842Z,12.17
2022-11-12T20:45:56.600Z,12.09
2022-11-12T20:48:17.046Z,12.01
2022-11-12T20:50:37.681Z,11.98
2022-11-12T20:52:58.429Z,11.95
2022-11-12T20:55:19.648Z,11.90
2022-11-12T20:57:40.249Z,11.86
2022-11-12T21:00:00.643Z,11.92
2022-11-12T21:02:21.257Z,12.01
2022-11-12T21:04:45.054Z,12.01
2022-11-12T21:07:06.287Z,12.04
2022-11-12T21:09:26.921Z,12.08
2022-11-12T21:11:47.216Z,11.92
2022-11-12T21:14:08.412Z,11.90
2022-11-12T21:16:28.904Z,11.81
2022-11-12T21:18:49.926Z,11.73
2022-11-12T21:21:12.850Z,11.81
2022-11-12T21:23:38.245Z,11.86
2022-11-12T21:26:08.859Z,11.86
2022-11-12T21:28:29.763Z,11.94
2022-11-12T21:30:52.511Z,11.93
2022-11-12T21:33:13.179Z,11.93
2022-11-12T21:35:33.846Z,11.91
2022-11-12T21:37:54.523Z,11.90
2022-11-12T21:40:16.907Z,11.91
2022-11-12T21:42:39.387Z,11.90
2022-11-12T21:45:02.256Z,11.86
2022-11-12T21:47:22.942Z,11.86
2022-11-12T21:49:43.677Z,11.86
2022-11-12T21:52:04.727Z,11.84
2022-11-12T21:54:25.343Z,11.85
2022-11-12T21:56:45.765Z,11.80
2022-11-12T21:59:06.500Z,11.78
2022-11-12T22:01:33.495Z,11.78
2022-11-12T22:03:55.478Z,11.80
2022-11-12T22:06:16.612Z,11.73
2022-11-12T22:08:37.834Z,11.60
2022-11-12T22:11:06.481Z,11.52
2022-11-12T22:13:27.764Z,11.62
2022-11-12T22:15:50.769Z,11.61
2022-11-12T22:18:11.646Z,11.63
2022-11-12T22:20:32.181Z,11.60
2022-11-12T22:22:52.860Z,11.63
2022-11-12T22:25:13.901Z,11.60
2022-11-12T22:27:34.190Z,11.58
2022-11-12T22:29:54.496Z,11.53
2022-11-12T22:32:15.259Z,11.49
2022-11-12T22:34:36.080Z,11.47
2022-11-12T22:36:57.095Z,11.34
2022-11-12T22:39:17.754Z,11.38
2022-11-12T22:41:38.800Z,11.35
2022-11-12T22:44:01.558Z,11.35
2022-11-12T22:46:24.434Z,11.22
2022-11-12T22:48:45.291Z,11.20
2022-11-12T22:51:08.758Z,11.20
2022-11-12T22:53:29.874Z,11.15
2022-11-12T22:55:50.912Z,11.20
2022-11-12T22:58:12.149Z,11.20
2022-11-12T23:00:32.960Z,11.25
2022-11-12T23:02:53.795Z,11.16
2022-11-12T23:05:14.333Z,11.11
2022-11-12T23:07:35.173Z,10.95
2022-11-12T23:09:55.807Z,10.97
2022-11-12T23:12:16.142Z,11.00
2022-11-12T23:14:36.898Z,11.03
2022-11-12T23:17:02.440Z,10.98
2022-11-12T23:19:23.432Z,11.04
2022-11-12T23:21:44.620Z,10.99
2022-11-12T23:24:05.521Z,11.04
2022-11-12T23:26:31.203Z,11.05
2022-11-12T23:28:52.429Z,10.99
2022-11-12T23:31:18.825Z,10.94
2022-11-12T23:33:39.302Z,10.89
2022-11-12T23:36:08.054Z,10.83
2022-11-12T23:38:30.915Z,10.74
2022-11-12T23:40:56.232Z,10.77
2022-11-12T23:43:16.882Z,10.84
2022-11-12T23:45:40.983Z,10.82
2022-11-12T23:48:01.623Z,10.88
2022-11-12T23:50:23.169Z,10.95
2022-11-12T23:52:44.234Z,10.94
2022-11-12T23:55:05.319Z,10.94
2022-11-12T23:57:25.839Z,10.90
2022-11-12T23:59:46.518Z,10.88
